Terminal Aerodrome Forecast
Issued by NWS

Home | Current Version | Previous Version | Text Only | Print | Product List | Glossary On
Versions: 1 2 3 4 5 6 7 8 9 10 11 12 13 14 15
000
FTUS44 KCRP 200300 AAA
TAFALI
TAF AMD
KALI 200301Z 2003/2024 15012KT P6SM FEW150
     FM201000 16005KT P6SM SCT015 SCT150
      TEMPO 2011/2015 BKN015
     FM201500 17014KT P6SM SCT030 BKN150
     FM202000 14015G22KT P6SM SCT040=

USA.gov is the U.S. government's official web portal to all federal, state and local government web resources and services.